Time;durP1;ratioP1;P1;durP2;ratioP2;P2;SDS_P1;SDS_P2;PMS_P1;PMS_P2;Temp;Humidity;BMP_temperature;BMP_pressure;BME280_temperature;BME280_humidity;BME280_pressure;Samples;Min_cycle;Max_cycle;Signal;HPM_P1;HPM_P2
2021/06/02 00:00:17;;;;;;;;;;;;;;;23.45;43.78;101118.00;2207878;39;115457;-53
2021/06/02 00:01:52;;;;;;;;;;;;;;;23.44;43.64;101119.16;2201716;39;116455;-53
2021/06/02 00:03:30;;;;;;;;;;;;;;;23.43;43.71;101115.50;2202594;39;115576;-53
2021/06/02 00:05:02;;;;;;;;;;;;;;;23.44;43.72;101116.34;2205052;39;115429;-53
2021/06/02 00:06:35;;;;;;;;;;;;;;;23.43;43.98;101115.50;2204219;39;115895;-53
2021/06/02 00:08:09;;;;;;;;;;;;;;;23.44;43.95;101113.53;2210301;39;114868;-53
2021/06/02 00:09:40;;;;;;;;;;;;;;;23.44;44.07;101108.72;2197984;39;114888;-53
2021/06/02 00:11:12;;;;;;;;;;;;;;;23.45;44.17;101107.56;2201052;39;115982;-52
2021/06/02 00:12:44;;;;;;;;;;;;;;;23.44;44.15;101108.72;2208903;39;115595;-54
2021/06/02 00:14:17;;;;;;;;;;;;;;;23.44;44.21;101111.53;2205672;39;115823;-52
2021/06/02 00:15:49;;;;;;;;;;;;;;;23.46;43.96;101105.56;2207941;39;113855;-53
2021/06/02 00:17:20;;;;;;;;;;;;;;;23.45;44.26;101103.91;2208539;39;113855;-53
2021/06/02 00:18:52;;;;;;;;;;;;;;;23.43;44.37;101107.03;2200705;39;114037;-53
2021/06/02 00:20:25;;;;;;;;;;;;;;;23.45;44.22;101109.56;2209848;39;114439;-53
2021/06/02 00:21:57;;;;;;;;;;;;;;;23.45;44.34;101103.91;2212672;39;113804;-56
2021/06/02 00:23:29;;;;;;;;;;;;;;;23.43;44.23;101109.88;2201495;39;113846;-53
2021/06/02 00:25:01;;;;;;;;;;;;;;;23.43;44.37;101104.22;2201528;39;113834;-53
2021/06/02 00:26:34;;;;;;;;;;;;;;;23.44;44.40;101102.25;2204333;39;114281;-53
2021/06/02 00:28:06;;;;;;;;;;;;;;;23.44;44.64;101099.41;2203865;39;114123;-53
2021/06/02 00:29:39;;;;;;;;;;;;;;;23.44;44.65;101094.63;2208725;39;113842;-53
2021/06/02 00:31:11;;;;;;;;;;;;;;;23.43;44.55;101090.13;2203167;39;114042;-53
2021/06/02 00:32:43;;;;;;;;;;;;;;;23.44;44.64;101088.13;2208164;39;114200;-53
2021/06/02 00:34:15;;;;;;;;;;;;;;;23.43;44.65;101083.66;2198629;39;114241;-53
2021/06/02 00:35:47;;;;;;;;;;;;;;;23.44;44.58;101082.50;2202838;39;113685;-52
2021/06/02 00:37:19;;;;;;;;;;;;;;;23.43;44.83;101081.66;2207374;39;113992;-53
2021/06/02 00:38:51;;;;;;;;;;;;;;;23.43;44.83;101078.84;2205124;39;114944;-53
2021/06/02 00:40:27;;;;;;;;;;;;;;;23.45;44.58;101087.00;2209685;39;114003;-53
2021/06/02 00:41:59;;;;;;;;;;;;;;;23.43;44.91;101078.00;2204746;39;114972;-54
2021/06/02 00:43:32;;;;;;;;;;;;;;;23.44;45.14;101074.88;2197615;39;115114;-53
2021/06/02 00:45:04;;;;;;;;;;;;;;;23.44;45.15;101071.22;2207233;39;115605;-53
2021/06/02 00:46:37;;;;;;;;;;;;;;;23.43;45.13;101070.38;2206444;39;115100;-53
2021/06/02 00:48:13;;;;;;;;;;;;;;;23.44;45.06;101071.22;2207389;39;114020;-53
2021/06/02 00:49:45;;;;;;;;;;;;;;;23.44;44.92;101072.06;2200605;39;115009;-53
2021/06/02 00:51:18;;;;;;;;;;;;;;;23.45;45.24;101072.88;2205702;39;115320;-53
2021/06/02 00:52:50;;;;;;;;;;;;;;;23.44;45.51;101072.06;2210143;39;114966;-53
2021/06/02 00:54:23;;;;;;;;;;;;;;;23.45;45.21;101067.25;2212568;39;114897;-53
2021/06/02 00:55:58;;;;;;;;;;;;;;;23.44;45.00;101063.59;2204760;39;115016;-53
2021/06/02 00:57:31;;;;;;;;;;;;;;;23.45;45.33;101073.72;2209119;39;115502;-53
2021/06/02 00:59:03;;;;;;;;;;;;;;;23.45;45.33;101072.88;2209545;39;116265;-53
2021/06/02 01:00:36;;;;;;;;;;;;;;;23.45;45.36;101068.09;2206432;39;115588;-53
2021/06/02 01:02:13;;;;;;;;;;;;;;;23.46;45.69;101069.75;2201693;39;115539;-52
2021/06/02 01:03:45;;;;;;;;;;;;;;;23.45;45.43;101070.06;2198943;39;114709;-53
2021/06/02 01:05:17;;;;;;;;;;;;;;;23.46;45.54;101072.56;2204437;39;115586;-53
2021/06/02 01:06:50;;;;;;;;;;;;;;;23.46;45.46;101054.81;2201705;39;115679;-53
2021/06/02 01:08:22;;;;;;;;;;;;;;;23.45;45.49;101059.63;2208171;39;115528;-52
2021/06/02 01:09:56;;;;;;;;;;;;;;;23.46;45.52;101061.28;2203105;39;116850;-52
2021/06/02 01:11:28;;;;;;;;;;;;;;;23.46;45.35;101066.94;2207659;39;115633;-52
2021/06/02 01:13:00;;;;;;;;;;;;;;;23.48;45.54;101066.63;2203402;39;115857;-53
2021/06/02 01:14:33;;;;;;;;;;;;;;;23.46;45.30;101066.09;2208249;39;115673;-53
2021/06/02 01:16:07;;;;;;;;;;;;;;;23.46;45.69;101066.09;2209794;39;115949;-53
2021/06/02 01:17:39;;;;;;;;;;;;;;;23.45;46.00;101061.59;2209061;39;115744;-53
2021/06/02 01:19:11;;;;;;;;;;;;;;;23.46;45.77;101064.13;2210040;39;115555;-53
2021/06/02 01:20:44;;;;;;;;;;;;;;;23.47;45.87;101071.44;2199481;39;115671;-52
2021/06/02 01:22:15;;;;;;;;;;;;;;;23.46;45.87;101072.56;2195541;39;114080;-53
2021/06/02 01:23:48;;;;;;;;;;;;;;;23.48;45.94;101063.78;2197559;39;114175;-52
2021/06/02 01:25:23;;;;;;;;;;;;;;;23.48;45.71;101066.63;2203709;39;113827;-53
2021/06/02 01:26:57;;;;;;;;;;;;;;;23.49;45.84;101068.25;2201991;39;113832;-52
2021/06/02 01:28:28;;;;;;;;;;;;;;;23.47;46.00;101065.78;2209167;39;113961;-53
2021/06/02 01:30:00;;;;;;;;;;;;;;;23.48;46.26;101066.63;2201302;39;114122;-53
2021/06/02 01:31:40;;;;;;;;;;;;;;;23.48;45.71;101061.78;2203104;39;114005;-53
2021/06/02 01:33:15;;;;;;;;;;;;;;;23.48;45.86;101060.97;2208231;39;113635;-54
2021/06/02 01:34:50;;;;;;;;;;;;;;;23.47;46.01;101059.31;2210626;39;114042;-53
2021/06/02 01:36:25;;;;;;;;;;;;;;;23.49;46.26;101059.78;2210359;39;113690;-53
2021/06/02 01:38:00;;;;;;;;;;;;;;;23.48;46.06;101058.16;2210355;39;113873;-53
2021/06/02 01:39:35;;;;;;;;;;;;;;;23.48;45.84;101058.97;2202338;39;113677;-52
2021/06/02 01:41:09;;;;;;;;;;;;;;;23.49;46.15;101056.97;2207350;39;114024;-53
2021/06/02 01:42:44;;;;;;;;;;;;;;;23.48;46.07;101052.50;2212362;39;113804;-53
2021/06/02 01:44:19;;;;;;;;;;;;;;;23.49;46.47;101060.63;2209103;39;114825;-53
2021/06/02 01:45:53;;;;;;;;;;;;;;;23.49;46.35;101057.81;2207523;39;115402;-54
2021/06/02 01:47:42;;;;;;;;;;;;;;;23.51;46.07;101060.31;2205391;39;115574;-52
2021/06/02 01:49:33;;;;;;;;;;;;;;;23.50;46.20;101061.47;2210013;39;114983;-53
2021/06/02 01:51:08;;;;;;;;;;;;;;;23.51;46.11;101059.47;2197235;39;115242;-52
2021/06/02 01:52:42;;;;;;;;;;;;;;;23.48;46.20;101060.97;2203311;39;115289;-53
2021/06/02 01:54:24;;;;;;;;;;;;;;;23.48;46.40;101056.13;2202554;39;115302;-53
2021/06/02 01:56:05;;;;;;;;;;;;;;;23.49;46.77;101068.25;2204823;39;114985;-53
2021/06/02 01:57:56;;;;;;;;;;;;;;;23.51;46.65;101060.31;2206941;39;115725;-53
2021/06/02 01:59:47;;;;;;;;;;;;;;;23.49;46.84;101057.81;2201060;39;115455;-53
2021/06/02 02:01:39;;;;;;;;;;;;;;;23.49;46.60;101049.34;2205822;39;115533;-53
2021/06/02 02:03:20;;;;;;;;;;;;;;;23.51;46.77;101053.84;2201966;39;115182;-53
2021/06/02 02:04:54;;;;;;;;;;;;;;;23.49;46.85;101060.63;2207948;39;115364;-53
2021/06/02 02:06:29;;;;;;;;;;;;;;;23.51;46.91;101053.84;2208728;39;115931;-52
2021/06/02 02:08:03;;;;;;;;;;;;;;;23.51;46.92;101057.50;2210913;39;116109;-53
2021/06/02 02:09:35;;;;;;;;;;;;;;;23.52;46.77;101061.16;2209705;39;116261;-53
2021/06/02 02:11:19;;;;;;;;;;;;;;;23.53;46.97;101057.19;2208443;39;115540;-54
2021/06/02 02:13:01;;;;;;;;;;;;;;;23.51;47.02;101053.84;2201013;39;115737;-52
2021/06/02 02:14:53;;;;;;;;;;;;;;;23.51;46.97;101053.84;2205160;39;116687;-53
2021/06/02 02:16:27;;;;;;;;;;;;;;;23.52;47.04;101058.34;2207845;39;116787;-53
2021/06/02 02:18:10;;;;;;;;;;;;;;;23.52;47.26;101049.88;2210529;39;116005;-53
2021/06/02 02:19:51;;;;;;;;;;;;;;;23.53;47.29;101048.72;2207963;39;115627;-53
2021/06/02 02:21:26;;;;;;;;;;;;;;;23.51;47.16;101048.19;2205497;39;115949;-53
2021/06/02 02:23:07;;;;;;;;;;;;;;;23.53;47.63;101051.53;2206851;39;115525;-53
2021/06/02 02:24:41;;;;;;;;;;;;;;;23.49;44.19;101048.50;2209628;39;115615;-53
2021/06/02 02:26:16;;;;;;;;;;;;;;;23.44;43.42;101043.00;2210573;39;115749;-53
2021/06/02 02:28:07;;;;;;;;;;;;;;;23.49;44.70;101049.34;2210880;39;114162;-54
2021/06/02 02:29:42;;;;;;;;;;;;;;;23.42;43.54;101046.16;2200783;39;114590;-53
2021/06/02 02:31:28;;;;;;;;;;;;;;;23.43;42.31;101045.00;2211356;39;114983;-54
2021/06/02 02:33:03;;;;;;;;;;;;;;;23.41;42.26;101050.13;2210625;39;113970;-53
2021/06/02 02:34:38;;;;;;;;;;;;;;;23.43;44.63;101042.19;2211126;39;114037;-53
2021/06/02 02:36:15;;;;;;;;;;;;;;;23.43;44.26;101047.81;2203576;39;115845;-53
2021/06/02 02:38:07;;;;;;;;;;;;;;;23.44;45.63;101045.84;2198398;39;113983;-55
2021/06/02 02:39:42;;;;;;;;;;;;;;;23.45;44.06;101044.69;2202747;39;115274;-53
2021/06/02 02:41:16;;;;;;;;;;;;;;;23.44;44.94;101046.66;2209964;39;113717;-53
2021/06/02 02:42:55;;;;;;;;;;;;;;;23.44;45.50;101041.03;2203148;39;114132;-53
2021/06/02 02:44:38;;;;;;;;;;;;;;;23.46;45.17;101040.72;2205632;39;113811;-53
2021/06/02 02:46:15;;;;;;;;;;;;;;;23.45;45.55;101039.03;2201568;39;113864;-53
2021/06/02 02:47:50;;;;;;;;;;;;;;;23.44;45.75;101038.22;2202040;39;113823;-53
2021/06/02 02:49:25;;;;;;;;;;;;;;;23.45;45.85;101034.25;2207396;39;113785;-53
2021/06/02 02:51:06;;;;;;;;;;;;;;;23.48;45.44;101038.41;2202420;39;114076;-53
2021/06/02 02:52:49;;;;;;;;;;;;;;;23.47;45.88;101040.41;2207961;39;113809;-53
2021/06/02 02:54:25;;;;;;;;;;;;;;;23.46;45.94;101044.38;2205650;39;113900;-54
2021/06/02 02:56:00;;;;;;;;;;;;;;;23.47;46.04;101045.19;2206220;39;115610;-53
2021/06/02 02:57:38;;;;;;;;;;;;;;;23.47;45.85;101033.91;2209576;39;113837;-54
2021/06/02 02:59:14;;;;;;;;;;;;;;;23.46;45.69;101037.91;2210304;39;115772;-53
2021/06/02 03:00:50;;;;;;;;;;;;;;;23.46;45.80;101035.06;2214499;39;115395;-56
2021/06/02 03:02:32;;;;;;;;;;;;;;;23.47;46.11;101031.94;2212272;39;114907;-53
2021/06/02 03:04:09;;;;;;;;;;;;;;;23.47;46.17;101031.94;2215809;39;115318;-53
2021/06/02 03:05:43;;;;;;;;;;;;;;;23.48;46.13;101027.94;2200331;39;115202;-53
2021/06/02 03:07:15;;;;;;;;;;;;;;;23.48;45.90;101027.94;2202544;39;114897;-53
2021/06/02 03:09:07;;;;;;;;;;;;;;;23.47;46.05;101023.47;2205355;39;115280;-53
2021/06/02 03:10:42;;;;;;;;;;;;;;;23.47;46.38;101028.28;2199818;39;115080;-53
2021/06/02 03:12:16;;;;;;;;;;;;;;;23.47;46.07;101031.09;2206071;39;114914;-53
2021/06/02 03:13:56;;;;;;;;;;;;;;;23.47;46.20;101026.31;2208274;39;115305;-53
2021/06/02 03:15:31;;;;;;;;;;;;;;;23.46;46.32;101037.91;2205360;39;114980;-53
2021/06/02 03:17:06;;;;;;;;;;;;;;;23.45;46.60;101037.06;2210326;39;115273;-53
2021/06/02 03:18:43;;;;;;;;;;;;;;;23.47;46.45;101039.56;2204987;39;116247;-53
2021/06/02 03:20:18;;;;;;;;;;;;;;;23.45;46.37;101034.25;2202658;39;115468;-53
2021/06/02 03:21:53;;;;;;;;;;;;;;;23.45;46.78;101034.25;2208566;39;115778;-53
2021/06/02 03:23:29;;;;;;;;;;;;;;;23.46;46.93;101035.06;2206335;39;115673;-53
2021/06/02 03:25:04;;;;;;;;;;;;;;;23.46;46.68;101035.91;2206540;39;115725;-53
2021/06/02 03:26:40;;;;;;;;;;;;;;;23.46;46.72;101035.91;2205131;39;115968;-53
2021/06/02 03:28:19;;;;;;;;;;;;;;;23.45;46.79;101037.06;2206921;39;115595;-53
2021/06/02 03:30:00;;;;;;;;;;;;;;;23.45;46.63;101042.69;2197560;39;116021;-53
2021/06/02 03:31:32;;;;;;;;;;;;;;;23.46;46.88;101041.56;2206156;39;116340;-53
2021/06/02 03:33:06;;;;;;;;;;;;;;;23.47;47.04;101037.56;2209352;39;115591;-53
2021/06/02 03:34:48;;;;;;;;;;;;;;;23.45;47.00;101034.25;2207617;39;114977;-53
2021/06/02 03:36:35;;;;;;;;;;;;;;;23.45;46.72;101039.88;2209655;39;115628;-53
2021/06/02 03:38:16;;;;;;;;;;;;;;;23.47;46.74;101039.56;2206628;39;115614;-53
2021/06/02 03:39:50;;;;;;;;;;;;;;;23.47;46.92;101037.56;2208918;39;115144;-53
2021/06/02 03:41:34;;;;;;;;;;;;;;;23.46;46.81;101033.09;2206665;39;113964;-54
2021/06/02 03:43:10;;;;;;;;;;;;;;;23.45;46.82;101034.25;2206599;39;113995;-53
2021/06/02 03:44:44;;;;;;;;;;;;;;;23.47;46.92;101034.75;2206586;39;113799;-53
2021/06/02 03:46:36;;;;;;;;;;;;;;;23.46;46.82;101030.28;2206578;39;114247;-55
2021/06/02 03:48:10;;;;;;;;;;;;;;;23.45;46.63;101039.88;2197129;39;114729;-52
2021/06/02 03:50:02;;;;;;;;;;;;;;;23.46;46.74;101035.91;2207745;39;113707;-53
2021/06/02 03:51:36;;;;;;;;;;;;;;;23.46;46.88;101043.53;2207946;39;113914;-53
2021/06/02 03:53:11;;;;;;;;;;;;;;;23.46;46.91;101044.38;2206311;39;114009;-53
2021/06/02 03:54:51;;;;;;;;;;;;;;;23.45;47.03;101037.06;2209050;39;114985;-53
2021/06/02 03:56:24;;;;;;;;;;;;;;;23.47;46.89;101042.38;2209662;39;114068;-53
2021/06/02 03:57:58;;;;;;;;;;;;;;;23.48;46.69;101035.59;2210575;39;113899;-53
2021/06/02 03:59:33;;;;;;;;;;;;;;;23.49;47.14;101029.59;2210520;39;113660;-53
2021/06/02 04:01:10;;;;;;;;;;;;;;;23.44;47.23;101032.56;2203956;39;114435;-53
2021/06/02 04:02:44;;;;;;;;;;;;;;;23.47;46.74;101025.47;2200585;39;114226;-53
2021/06/02 04:04:19;;;;;;;;;;;;;;;23.47;46.66;101025.47;2211068;39;113806;-54
2021/06/02 04:05:57;;;;;;;;;;;;;;;23.46;46.89;101032.25;2206926;39;115136;-54
2021/06/02 04:07:39;;;;;;;;;;;;;;;23.45;46.96;101033.41;2208973;39;114416;-53
2021/06/02 04:09:12;;;;;;;;;;;;;;;23.48;46.94;101035.59;2205015;39;114725;-53
2021/06/02 04:10:46;;;;;;;;;;;;;;;23.45;46.93;101037.06;2199067;39;114430;-53
2021/06/02 04:12:24;;;;;;;;;;;;;;;23.44;47.09;101035.38;2202731;39;114792;-53
2021/06/02 04:13:57;;;;;;;;;;;;;;;23.43;47.19;101033.72;2205695;39;115091;-53
2021/06/02 04:15:30;;;;;;;;;;;;;;;23.46;47.46;101043.53;2203073;39;115330;-53
2021/06/02 04:17:02;;;;;;;;;;;;;;;23.45;47.32;101041.88;2208768;39;114914;-53
2021/06/02 04:18:35;;;;;;;;;;;;;;;23.45;47.52;101039.88;2208901;39;115511;-54
2021/06/02 04:20:07;;;;;;;;;;;;;;;23.46;47.53;101038.72;2205401;39;114068;-53
2021/06/02 04:21:41;;;;;;;;;;;;;;;23.44;47.48;101029.75;2202933;39;114971;-54
2021/06/02 04:23:17;;;;;;;;;;;;;;;23.44;47.67;101029.75;2201047;39;114349;-53
2021/06/02 04:24:50;;;;;;;;;;;;;;;23.45;47.47;101033.41;2207022;39;114882;-52
2021/06/02 04:26:21;;;;;;;;;;;;;;;23.45;47.43;101025.78;2217162;39;114223;-53
2021/06/02 04:27:54;;;;;;;;;;;;;;;23.46;47.62;101029.44;2210981;39;114402;-53
2021/06/02 04:29:27;;;;;;;;;;;;;;;23.46;47.82;101029.44;2208970;39;115648;-53
2021/06/02 04:31:03;;;;;;;;;;;;;;;23.46;47.55;101030.28;2203722;39;115728;-53
2021/06/02 04:32:37;;;;;;;;;;;;;;;23.46;47.84;101037.91;2203950;39;117339;-53
2021/06/02 04:34:09;;;;;;;;;;;;;;;23.44;47.54;101032.56;2210630;39;116248;-53
2021/06/02 04:35:42;;;;;;;;;;;;;;;23.45;47.72;101028.59;2208201;39;115173;-53
2021/06/02 04:37:15;;;;;;;;;;;;;;;23.45;47.55;101027.75;2198453;39;115850;-53
2021/06/02 04:38:47;;;;;;;;;;;;;;;23.45;47.76;101022.97;2203809;39;115808;-53
2021/06/02 04:40:19;;;;;;;;;;;;;;;23.44;47.84;101026.94;2204489;39;115578;-53
2021/06/02 04:41:53;;;;;;;;;;;;;;;23.46;47.99;101026.63;2204676;39;115765;-53
2021/06/02 04:43:26;;;;;;;;;;;;;;;23.47;47.89;101022.66;2204641;39;115655;-53
2021/06/02 04:44:57;;;;;;;;;;;;;;;23.46;48.11;101024.63;2206939;39;115776;-52
2021/06/02 04:46:29;;;;;;;;;;;;;;;23.49;48.54;101025.94;2210211;39;116131;-52
2021/06/02 04:48:01;;;;;;;;;;;;;;;23.48;48.44;101027.13;2212289;39;115729;-53
2021/06/02 04:49:34;;;;;;;;;;;;;;;23.46;48.60;101030.28;2210338;39;114046;-53
2021/06/02 04:51:09;;;;;;;;;;;;;;;23.47;48.36;101039.56;2205293;39;114099;-53
2021/06/02 04:52:42;;;;;;;;;;;;;;;23.48;48.83;101029.94;2205944;39;114209;-53
2021/06/02 04:54:31;;;;;;;;;;;;;;;23.48;48.61;101033.56;2210649;39;113753;-54
2021/06/02 04:56:06;;;;;;;;;;;;;;;23.47;48.60;101029.13;2209518;39;113857;-53
2021/06/02 04:57:57;;;;;;;;;;;;;;;23.47;48.56;101029.13;2204812;39;113609;-53
2021/06/02 04:59:33;;;;;;;;;;;;;;;23.47;48.65;101034.75;2203440;39;113672;-53
2021/06/02 05:01:20;;;;;;;;;;;;;;;23.47;48.82;101034.75;2205000;39;114054;-53
2021/06/02 05:02:55;;;;;;;;;;;;;;;23.46;48.70;101030.28;2205650;39;113814;-53
2021/06/02 05:04:29;;;;;;;;;;;;;;;23.48;48.54;101029.94;2204772;39;113674;-53
2021/06/02 05:06:21;;;;;;;;;;;;;;;23.47;48.51;101026.31;2197930;39;113931;-53
2021/06/02 05:08:14;;;;;;;;;;;;;;;23.47;48.68;101029.13;2207471;39;114006;-53
2021/06/02 05:09:55;;;;;;;;;;;;;;;23.48;48.75;101030.75;2203901;39;113797;-53
2021/06/02 05:11:29;;;;;;;;;;;;;;;23.47;48.69;101037.56;2212855;39;113746;-53
2021/06/02 05:13:04;;;;;;;;;;;;;;;23.48;48.68;101033.56;2203342;39;115789;-53
2021/06/02 05:14:52;;;;;;;;;;;;;;;23.50;48.52;101036.09;2208097;39;115175;-53
2021/06/02 05:16:27;;;;;;;;;;;;;;;23.50;49.11;101038.91;2210058;39;115024;-53
2021/06/02 05:17:59;;;;;;;;;;;;;;;23.48;48.67;101032.78;2208716;39;114882;-53
2021/06/02 05:23:02;;;;;;;;;;;;;;;23.47;48.82;101026.31;2198331;39;114951;-54
2021/06/02 05:24:37;;;;;;;;;;;;;;;23.47;48.62;101026.31;2194831;39;113886;-53
2021/06/02 05:26:12;;;;;;;;;;;;;;;23.47;48.90;101026.31;2197894;39;115482;-53
2021/06/02 05:27:46;;;;;;;;;;;;;;;23.47;48.97;101020.66;2206048;39;114944;-53
2021/06/02 05:29:21;;;;;;;;;;;;;;;23.48;48.55;101021.50;2203804;39;115573;-53
2021/06/02 05:31:12;;;;;;;;;;;;;;;23.47;48.71;101020.66;2207759;39;114858;-53
2021/06/02 05:32:47;;;;;;;;;;;;;;;23.46;48.96;101013.34;2201111;39;115176;-52
2021/06/02 05:34:39;;;;;;;;;;;;;;;23.48;48.77;101013.03;2212594;39;114867;-53
2021/06/02 05:36:30;;;;;;;;;;;;;;;23.48;48.67;101016.66;2196280;39;116133;-53
2021/06/02 05:38:03;;;;;;;;;;;;;;;23.47;48.81;101017.84;2202554;39;116111;-53
2021/06/02 05:39:48;;;;;;;;;;;;;;;23.48;49.26;101025.13;2209824;39;115803;-53
2021/06/02 05:41:30;;;;;;;;;;;;;;;23.49;48.88;101028.78;2209701;39;114522;-53
2021/06/02 05:43:05;;;;;;;;;;;;;;;23.49;49.17;101023.13;2209523;39;114718;-53
2021/06/02 05:44:40;;;;;;;;;;;;;;;23.48;49.09;101025.13;2210175;39;115780;-53
2021/06/02 05:46:30;;;;;;;;;;;;;;;23.49;48.94;101023.13;2208615;39;115735;-53
2021/06/02 05:48:05;;;;;;;;;;;;;;;23.48;49.04;101018.66;2209833;39;116239;-53
2021/06/02 05:49:47;;;;;;;;;;;;;;;23.48;48.87;101016.66;2202097;39;115814;-53
2021/06/02 05:51:36;;;;;;;;;;;;;;;23.48;49.02;101016.66;2208166;39;115651;-53
2021/06/02 05:53:11;;;;;;;;;;;;;;;23.48;49.41;101013.84;2209073;39;114265;-53
2021/06/02 05:54:52;;;;;;;;;;;;;;;23.48;49.09;101013.03;2210076;39;116008;-53
2021/06/02 05:56:26;;;;;;;;;;;;;;;23.48;48.91;101013.03;2203576;39;115637;-53
2021/06/02 05:58:18;;;;;;;;;;;;;;;23.48;48.87;101018.66;2207015;39;115636;-54
2021/06/02 06:00:01;;;;;;;;;;;;;;;23.47;49.16;101009.38;2199069;39;114874;-52
2021/06/02 06:01:53;;;;;;;;;;;;;;;23.49;49.00;101009.03;2208726;39;113730;-53
2021/06/02 06:03:27;;;;;;;;;;;;;;;23.48;48.92;101018.66;2201906;39;113765;-53
2021/06/02 06:05:02;;;;;;;;;;;;;;;23.47;48.99;101015.00;2205128;39;114061;-53
2021/06/02 06:06:37;;;;;;;;;;;;;;;23.48;49.12;101018.66;2204473;39;113865;-52
2021/06/02 06:08:11;;;;;;;;;;;;;;;23.47;48.48;101017.84;2191031;39;113924;-53
2021/06/02 06:09:57;;;;;;;;;;;;;;;23.46;49.10;101013.34;2200497;39;114324;-53
2021/06/02 06:11:49;;;;;;;;;;;;;;;23.46;48.82;101013.34;2204496;39;114448;-52
2021/06/02 06:13:25;;;;;;;;;;;;;;;23.47;48.97;101023.47;2212114;39;113989;-53
2021/06/02 06:15:00;;;;;;;;;;;;;;;23.47;49.16;101022.66;2203497;39;114354;-54
2021/06/02 06:16:41;;;;;;;;;;;;;;;23.46;48.88;101020.97;2207945;39;113631;-53
2021/06/02 06:18:25;;;;;;;;;;;;;;;23.46;48.78;101018.16;2210657;39;113998;-52
2021/06/02 06:20:10;;;;;;;;;;;;;;;23.46;48.92;101006.88;2210326;39;113889;-53
2021/06/02 06:21:59;;;;;;;;;;;;;;;23.45;48.99;101011.69;2210266;39;113595;-53
2021/06/02 06:23:43;;;;;;;;;;;;;;;23.46;49.08;101010.53;2211794;39;114304;-53
2021/06/02 06:25:20;;;;;;;;;;;;;;;23.45;49.20;101011.69;2197235;39;114946;-54
2021/06/02 06:26:57;;;;;;;;;;;;;;;23.47;49.34;101005.72;2208462;39;115444;-53
2021/06/02 06:28:32;;;;;;;;;;;;;;;23.48;49.00;101013.03;2210073;39;115262;-52
2021/06/02 06:30:04;;;;;;;;;;;;;;;23.46;49.15;101012.50;2199099;39;114930;-53
2021/06/02 06:31:37;;;;;;;;;;;;;;;23.44;49.09;101014.81;2202996;39;115025;-54
2021/06/02 06:33:09;;;;;;;;;;;;;;;23.46;48.89;101009.69;2201182;39;115187;-52
2021/06/02 06:34:41;;;;;;;;;;;;;;;23.46;49.00;101004.88;2205371;39;114961;-53
2021/06/02 06:36:15;;;;;;;;;;;;;;;23.44;49.07;101007.19;2207645;39;114273;-53
2021/06/02 06:37:49;;;;;;;;;;;;;;;23.47;49.33;100997.25;2205242;39;114711;-53
2021/06/02 06:39:24;;;;;;;;;;;;;;;23.45;49.13;101008.84;2204873;39;113867;-53
2021/06/02 06:40:56;;;;;;;;;;;;;;;23.47;49.31;100998.09;2206045;39;114848;-53
2021/06/02 06:42:30;;;;;;;;;;;;;;;23.46;49.29;101004.88;2191142;39;115366;-53
2021/06/02 06:44:03;;;;;;;;;;;;;;;23.46;49.26;101004.88;2201198;39;114843;-52
2021/06/02 06:45:38;;;;;;;;;;;;;;;23.47;49.42;101002.91;2212972;39;115393;-53
2021/06/02 06:47:12;;;;;;;;;;;;;;;23.46;49.28;101002.06;2206482;39;115852;-53
2021/06/02 06:48:45;;;;;;;;;;;;;;;23.45;49.26;100999.56;2206771;39;115435;-53
2021/06/02 06:50:18;;;;;;;;;;;;;;;23.45;49.46;101006.03;2209210;39;115827;-53
2021/06/02 06:51:52;;;;;;;;;;;;;;;23.46;49.32;101002.06;2208518;39;115754;-53
2021/06/02 06:53:25;;;;;;;;;;;;;;;23.45;49.56;100996.75;2207482;39;115727;-53
2021/06/02 06:54:58;;;;;;;;;;;;;;;23.46;49.34;100996.44;2207352;39;115794;-53
2021/06/02 06:56:30;;;;;;;;;;;;;;;23.47;49.36;100997.25;2206902;39;114954;-53
2021/06/02 06:58:04;;;;;;;;;;;;;;;23.46;49.19;101001.22;2211332;39;115537;-53
2021/06/02 06:59:38;;;;;;;;;;;;;;;23.48;49.33;101005.38;2204106;39;114950;-53
2021/06/02 07:01:10;;;;;;;;;;;;;;;23.46;49.41;100999.25;2196525;39;115760;-53
2021/06/02 07:02:52;;;;;;;;;;;;;;;23.48;49.16;101004.56;2204008;39;115938;-53
2021/06/02 07:04:26;;;;;;;;;;;;;;;23.47;49.63;101003.72;2198687;39;114586;-53
2021/06/02 07:06:01;;;;;;;;;;;;;;;23.47;49.36;101012.19;2204174;39;114354;-53
2021/06/02 07:07:34;;;;;;;;;;;;;;;23.48;49.06;101011.00;2201491;39;115619;-53
2021/06/02 07:09:06;;;;;;;;;;;;;;;23.48;49.40;101010.22;2201349;39;113583;-53
2021/06/02 07:10:38;;;;;;;;;;;;;;;23.47;49.21;101000.91;2206107;39;114315;-54
2021/06/02 07:12:10;;;;;;;;;;;;;;;23.49;49.22;100992.94;2205594;39;114162;-53
2021/06/02 07:13:42;;;;;;;;;;;;;;;23.48;49.35;100999.72;2201436;39;114115;-53
2021/06/02 07:15:15;;;;;;;;;;;;;;;23.47;49.20;101003.72;2201107;39;114062;-53
2021/06/02 07:16:50;;;;;;;;;;;;;;;23.47;49.49;101000.09;2203268;39;113726;-53
2021/06/02 07:18:23;;;;;;;;;;;;;;;23.50;49.36;101007.88;2201841;39;114238;-53
2021/06/02 07:19:58;;;;;;;;;;;;;;;23.49;49.71;101004.22;2208783;39;113685;-53
2021/06/02 07:21:29;;;;;;;;;;;;;;;23.49;49.52;100998.59;2209634;39;113755;-53
2021/06/02 07:23:01;;;;;;;;;;;;;;;23.52;49.61;100993.47;2209118;39;113747;-53
2021/06/02 07:24:33;;;;;;;;;;;;;;;23.55;49.91;100996.44;2201331;39;113808;-53
2021/06/02 07:26:06;;;;;;;;;;;;;;;23.60;49.78;100987.00;2197155;39;113978;-53
2021/06/02 07:27:59;;;;;;;;;;;;;;;23.63;50.29;100994.78;2200885;39;113833;-54
2021/06/02 07:29:31;;;;;;;;;;;;;;;23.67;50.26;100996.63;2202734;39;113703;-53
2021/06/02 07:31:04;;;;;;;;;;;;;;;23.70;50.17;100993.16;2208967;39;113711;-53
2021/06/02 07:32:35;;;;;;;;;;;;;;;23.73;50.15;100991.66;2203510;39;114182;-53
2021/06/02 07:34:08;;;;;;;;;;;;;;;23.78;50.29;100991.53;2207403;39;115871;-54
2021/06/02 07:35:39;;;;;;;;;;;;;;;23.81;50.19;100997.31;2210784;39;114932;-53
2021/06/02 07:37:11;;;;;;;;;;;;;;;23.84;49.98;100995.84;2200997;39;115073;-53
2021/06/02 07:38:43;;;;;;;;;;;;;;;23.87;50.16;101000.81;2205999;39;115237;-53
2021/06/02 07:40:15;;;;;;;;;;;;;;;23.88;49.95;100997.69;2203126;39;114991;-53
2021/06/02 07:41:47;;;;;;;;;;;;;;;23.90;49.90;100995.34;2213043;39;114813;-53
2021/06/02 07:43:19;;;;;;;;;;;;;;;23.93;50.00;101002.34;2205608;39;115344;-54
2021/06/02 07:44:50;;;;;;;;;;;;;;;23.95;50.34;100997.19;2206708;39;114883;-53
2021/06/02 07:46:22;;;;;;;;;;;;;;;23.98;49.79;100999.34;2201775;39;114952;-53
2021/06/02 07:47:54;;;;;;;;;;;;;;;24.01;49.92;100997.84;2206751;39;115207;-53
2021/06/02 07:49:26;;;;;;;;;;;;;;;24.02;49.61;101000.34;2206942;39;114351;-53
2021/06/02 07:50:58;;;;;;;;;;;;;;;24.05;49.87;100996.03;2209158;39;114834;-53
2021/06/02 07:52:30;;;;;;;;;;;;;;;24.06;49.59;100997.69;2212127;39;114818;-53
2021/06/02 07:54:04;;;;;;;;;;;;;;;24.08;49.79;101003.81;2208495;39;117755;-53
2021/06/02 07:55:36;;;;;;;;;;;;;;;24.09;49.29;101003.50;2203163;39;115402;-53
2021/06/02 07:57:08;;;;;;;;;;;;;;;24.11;49.38;101003.19;2200570;39;115906;-53
2021/06/02 07:58:42;;;;;;;;;;;;;;;24.13;49.51;100998.00;2206105;39;115804;-53
2021/06/02 08:00:14;;;;;;;;;;;;;;;24.14;49.38;101002.50;2207087;39;114771;-53
2021/06/02 08:01:46;;;;;;;;;;;;;;;24.16;49.21;101003.88;2209961;39;116189;-53
2021/06/02 08:03:19;;;;;;;;;;;;;;;24.18;49.28;101000.72;2210134;39;116173;-53
2021/06/02 08:04:51;;;;;;;;;;;;;;;24.19;49.28;101003.22;2204024;39;115459;-53
2021/06/02 08:06:22;;;;;;;;;;;;;;;24.20;49.21;100999.22;2208350;39;115483;-53
2021/06/02 08:07:54;;;;;;;;;;;;;;;24.22;49.09;100999.72;2206720;39;115445;-53
2021/06/02 08:09:26;;;;;;;;;;;;;;;24.21;49.36;100992.41;2209927;39;114950;-53
2021/06/02 08:10:58;;;;;;;;;;;;;;;24.23;49.39;101007.03;2200037;39;115781;-53